Thomaston, GA (30286)

10:45 AM EDT on May 24, 2017 (GMT -0400)
Upson EMA | | Change Station
Active Advisory: Flash Flood Watch Active Notice: Flash Flood Watch

Elev 697 ft 32.89 °N, 84.33 °W | Updated 24 seconds ago

Overcast
Overcast
71.4 °F
Feels Like 71.4 °F
N
1.0
Wind Variable Wind from SW
Gusts 1.0 mph

Today
High -- | Low -- °F
--% Chance of Precip.
Yesterday
High -- | Low -- °F
Precip. -- in
Pressure 29.61 in
Visibility 10.0 miles
Clouds Overcast 800 ft
Dew Point 69 °F
Humidity 92%
Rainfall 0.00 in
Snow Depth Not available.
6:32 AM 8:35 PM
Waning Crescent, 2% visible
METAR KOPN 241435Z AUTO 22007KT 10SM OVC008 22/19 A2961 RMK AO2 LTG DSNT S
Pressure 29.61 in
Visibility 10.0 miles
Clouds Overcast 800 ft
Dew Point 69 °F
Humidity 92%
Rainfall 0.00 in
Snow Depth Not available.
6:32 AM 8:35 PM
Waning Crescent, 2% visible
METAR KOPN 241435Z AUTO 22007KT 10SM OVC008 22/19 A2961 RMK AO2 LTG DSNT S

Get Your Daily Forecast Email!

Thanks for signing up!

Be on the lookout for a verification email in your inbox.

You'll start receiving severe weather alerts in your inbox..

×

10-Day Weather Forecast

Almanac

Astronomy

May. 24, 2017 Rise Set
Actual Time
Civil Twilight
Nautical Twilight
Astronomical Twilight
Moon
Length of Visible Light
Length of Day
Tomorrow will be .
, % of the Moon is Illuminated

Today's Extremes

State Highs State Lows

Community

WunderPhotos

Category 6

Welcome to Category 6. This is the collective home for Weather Underground's featured writeups by Dr. Jeff Masters (right), Bob Henson (left), Chris Burt, and other regular contributors.

Nearby

Air Quality

  Air Quality AQ Index Pollutant
Not available.

Snow Depth

Station Depth Elevation

Earthquake Activity

City Distance Mag. Time & Date
Minimum magnitude displayed is 2.5.

Coastal Water Temperatures

Place Temperature

Stations

Nearby Weather Stations

Station Location Temp. Windchill Dew Point Humidity Wind Precip. Elev Updated Type
                   

Watches & Warnings

Flash Flood Watch
Issued: 3:32 AM EDT May. 24, 2017 – National Weather Service

... Flash Flood Watch now in effect through this evening...

The Flash Flood Watch is now in effect for

* north and central Georgia.

* Through this evening

* several rounds of showers and thunderstorms are possible again
today, with locally heavy rainfall likely. An additional 1 to 2
inches of rainfall is anticipated, with some isolated higher
amounts possible.

* Flooding in low lying and flood prone areas will be likely,
especially in urban areas. In addition, creeks, streams and
rivers may overflow their banks.

Precautionary/preparedness actions...

A Flash Flood Watch means that conditions may develop that lead
to flash flooding. Flash flooding is a very dangerous situation.

You should monitor later forecasts and be prepared to take action
should flash flood warnings be issued.